Huvudsida
METAR-TAF:

METAR-TAF

Flygplatser :

Selebi Phikwe

Selebi-Phikwe, Botswana

latitud: 22-03-19S, longitud: 027-49-13E, höjd: 892 m

METAR: saknas

Tid: 15:03 (13:03 UTC)

Väderprognos

Denna rapport gjordes för 3 timmar och 3 minuter sedan, klockan 10:00 UTC
Prognos gäller från 19 kl. 12 UTC till 20 kl. 18 UTC
Vind 4 kt från nord/nordväst
Sikt 10 km eller mer
Inga moln under 1 500 m eller inga cumulonimbus
Blir
från 19 kl. 21 UTC till 19 kl. 23 UTC
Vind 4 kt från väst

TAF: FBSP 191000Z 1912/2018 33004KT CAVOK BECMG 1921/1923 26004KT

Aktuella väderrapporter och prognoser från 4000 flygplatser (METAR- och TAF-rapporter).

De tillgängliga stationerna syns som gula och röda prickar på kartan.

För musen över prickarna för att se namnen på stationerna.

Klicka sedan för att få väderrapporter och prognoser.

För att ändra kartan: Klicka på de gröna knapparna med ett svart kors på för att zooma in; den gröna knappen med ett streck på för att zooma ut; eller på de gröna pilarna för angränsande kartor.


METAR-TAF: